Time;durP1;ratioP1;P1;durP2;ratioP2;P2;SDS_P1;SDS_P2;PMS_P1;PMS_P2;Temp;Humidity;BMP_temperature;BMP_pressure;BME280_temperature;BME280_humidity;BME280_pressure;Samples;Min_cycle;Max_cycle;Signal;HPM_P1;HPM_P2
2022/02/12 00:02:15;;;;;;;74.80;29.35;;;;;;;-2.69;100.00;103369.28;5268652;28;20110;-78
2022/02/12 00:04:46;;;;;;;60.83;26.98;;;;;;;-2.70;100.00;103364.91;5286677;28;20471;-78
2022/02/12 00:07:16;;;;;;;74.40;27.05;;;;;;;-2.62;100.00;103376.19;5286930;28;20030;-78
2022/02/12 00:09:47;;;;;;;64.80;26.25;;;;;;;-2.58;100.00;103362.13;5288487;28;20353;-78
2022/02/12 00:12:17;;;;;;;79.82;27.17;;;;;;;-2.54;100.00;103363.81;5293007;28;20065;-78
2022/02/12 00:14:48;;;;;;;70.85;27.35;;;;;;;-2.51;100.00;103363.78;5283040;28;20133;-78
2022/02/12 00:17:18;;;;;;;74.45;28.33;;;;;;;-2.49;100.00;103356.75;5256511;28;20027;-78
2022/02/12 00:19:49;;;;;;;62.13;25.20;;;;;;;-2.51;100.00;103352.38;5289310;28;20020;-78
2022/02/12 00:22:19;;;;;;;69.22;27.05;;;;;;;-2.50;100.00;103352.38;5253470;28;20475;-78
2022/02/12 00:24:50;;;;;;;63.95;24.67;;;;;;;-2.54;100.00;103355.94;5288540;28;20479;-78
2022/02/12 00:27:20;;;;;;;71.28;27.98;;;;;;;-2.57;100.00;103350.72;5290284;28;20493;-78
2022/02/12 00:29:51;;;;;;;61.78;27.52;;;;;;;-2.59;100.00;103343.75;5289532;28;20080;-78
2022/02/12 00:32:21;;;;;;;73.93;28.30;;;;;;;-2.63;100.00;103338.53;5289662;28;20055;-78
2022/02/12 00:34:52;;;;;;;79.00;28.95;;;;;;;-2.62;100.00;103340.25;5271149;28;20019;-78
2022/02/12 00:37:24;;;;;;;74.13;29.40;;;;;;;-2.61;100.00;103336.75;5289110;28;20375;-78
2022/02/12 00:39:55;;;;;;;61.42;24.65;;;;;;;-2.62;100.00;103335.00;5291166;28;20504;-78
2022/02/12 00:42:26;;;;;;;65.63;28.15;;;;;;;-2.61;100.00;103326.25;5293003;28;20501;-78
2022/02/12 00:44:57;;;;;;;63.55;27.55;;;;;;;-2.62;100.00;103329.75;5291753;28;20027;-78
2022/02/12 00:47:28;;;;;;;67.82;26.65;;;;;;;-2.66;100.00;103328.06;5292004;28;20190;-78
2022/02/12 00:49:58;;;;;;;77.60;26.48;;;;;;;-2.71;100.00;103323.75;5291015;28;20112;-78
2022/02/12 00:52:29;;;;;;;66.93;26.83;;;;;;;-2.73;100.00;103322.91;5292624;28;20055;-78
2022/02/12 00:54:59;;;;;;;83.10;27.10;;;;;;;-2.77;100.00;103308.94;5290684;28;20065;-78
2022/02/12 00:57:31;;;;;;;61.95;26.38;;;;;;;-2.78;100.00;103317.72;5290187;28;20023;-78
2022/02/12 01:00:03;;;;;;;67.70;26.23;;;;;;;-2.79;100.00;103307.22;5289903;28;20020;-78
2022/02/12 01:02:34;;;;;;;66.18;26.80;;;;;;;-2.81;100.00;103312.50;5289495;28;20114;-77
2022/02/12 01:05:05;;;;;;;74.47;26.83;;;;;;;-2.82;100.00;103302.00;5288962;28;20102;-78
2022/02/12 01:07:35;;;;;;;68.93;26.13;;;;;;;-2.83;100.00;103305.53;5289557;28;20039;-78
2022/02/12 01:10:07;;;;;;;59.10;24.67;;;;;;;-2.85;100.00;103304.69;5288945;28;20035;-78
2022/02/12 01:12:37;;;;;;;69.15;25.52;;;;;;;-2.90;100.00;103294.22;5289557;28;20011;-77
2022/02/12 01:15:08;;;;;;;55.42;24.63;;;;;;;-2.93;100.00;103302.16;5284826;28;20036;-78
2022/02/12 01:17:39;;;;;;;54.67;25.20;;;;;;;-2.94;100.00;103290.78;5280825;28;20027;-78
2022/02/12 01:20:09;;;;;;;56.58;24.13;;;;;;;-2.95;100.00;103298.69;5288585;28;20047;-78
2022/02/12 01:22:40;;;;;;;65.00;25.45;;;;;;;-2.93;100.00;103295.13;5279484;28;20480;-78
2022/02/12 01:25:10;;;;;;;59.70;23.73;;;;;;;-2.92;100.00;103282.84;5288708;28;20023;-77
2022/02/12 01:27:41;;;;;;;69.53;26.05;;;;;;;-2.89;100.00;103290.72;5288874;28;20451;-78
2022/02/12 01:30:13;;;;;;;58.25;26.40;;;;;;;-2.85;100.00;103284.53;5288792;28;20055;-78
2022/02/12 01:32:43;;;;;;;70.82;26.52;;;;;;;-2.85;100.00;103295.03;5288814;28;21322;-78
2022/02/12 01:35:14;;;;;;;63.95;24.08;;;;;;;-2.84;100.00;103283.63;5288904;28;20027;-77
2022/02/12 01:37:44;;;;;;;58.90;24.17;;;;;;;-2.85;100.00;103286.28;5270765;28;20060;-78
2022/02/12 01:40:16;;;;;;;69.30;25.45;;;;;;;-2.84;100.00;103280.16;5288749;28;20099;-78
2022/02/12 01:42:48;;;;;;;58.95;24.15;;;;;;;-2.85;100.00;103283.66;5289476;28;20394;-78
2022/02/12 01:45:19;;;;;;;57.00;22.90;;;;;;;-2.87;100.00;103276.66;5288895;28;20049;-77
2022/02/12 01:47:49;;;;;;;54.67;23.27;;;;;;;-2.83;100.00;103260.88;5289441;28;20072;-79
2022/02/12 01:50:20;;;;;;;58.55;24.38;;;;;;;-2.83;100.00;103259.09;5289087;28;20122;-78
2022/02/12 01:52:51;;;;;;;54.50;22.23;;;;;;;-2.83;100.00;103252.97;5287391;28;20504;-79
2022/02/12 01:55:22;;;;;;;46.83;20.83;;;;;;;-2.87;100.00;103260.03;5277201;28;20399;-78
2022/02/12 01:57:52;;;;;;;64.75;23.05;;;;;;;-2.88;100.00;103263.53;5288441;28;20024;-78
2022/02/12 02:00:23;;;;;;;68.78;23.77;;;;;;;-2.90;100.00;103253.06;5288159;28;20583;-78
2022/02/12 02:02:55;;;;;;;55.42;19.95;;;;;;;-2.92;100.00;103251.34;5288679;28;20039;-78
2022/02/12 02:05:26;;;;;;;54.47;21.50;;;;;;;-2.82;100.00;103245.06;5269921;28;20054;-78
2022/02/12 02:07:56;;;;;;;60.38;24.42;;;;;;;-2.80;100.00;103255.56;5288530;28;20457;-78
2022/02/12 02:10:27;;;;;;;55.28;21.58;;;;;;;-2.79;100.00;103252.06;5287712;28;20023;-78
2022/02/12 02:12:58;;;;;;;55.08;21.98;;;;;;;-2.78;100.00;103253.78;5288286;28;20028;-78
2022/02/12 02:15:28;;;;;;;59.70;21.25;;;;;;;-2.73;100.00;103260.72;5266074;28;20024;-78
2022/02/12 02:17:59;;;;;;;56.75;20.88;;;;;;;-2.64;100.00;103257.09;5282934;28;20418;-78
2022/02/12 02:20:31;;;;;;;57.70;20.75;;;;;;;-2.68;100.00;103248.38;5288099;28;20023;-78
2022/02/12 02:23:02;;;;;;;61.40;21.02;;;;;;;-2.69;100.00;103248.41;5279337;28;20031;-79
2022/02/12 02:25:32;;;;;;;58.47;22.88;;;;;;;-2.70;100.00;103244.03;5269802;28;20028;-78
2022/02/12 02:28:03;;;;;;;64.88;22.67;;;;;;;-2.72;100.00;103245.81;5287846;28;20015;-78
2022/02/12 02:30:33;;;;;;;62.00;21.35;;;;;;;-2.77;100.00;103245.88;5287486;28;20041;-78
2022/02/12 02:33:04;;;;;;;59.95;21.05;;;;;;;-2.78;100.00;103235.38;5287375;28;20496;-77
2022/02/12 02:35:34;;;;;;;47.03;21.00;;;;;;;-2.74;100.00;103239.72;5287255;28;20034;-77
2022/02/12 02:38:07;;;;;;;53.72;20.88;;;;;;;-2.76;100.00;103244.09;5287743;28;20535;-78
2022/02/12 02:40:38;;;;;;;51.38;20.77;;;;;;;-2.80;100.00;103235.44;5288175;28;20032;-77
2022/02/12 02:43:09;;;;;;;56.20;22.17;;;;;;;-2.80;100.00;103234.56;5287900;28;20308;-77
2022/02/12 02:45:40;;;;;;;67.22;21.88;;;;;;;-2.81;100.00;103230.16;5269606;28;20458;-78
2022/02/12 02:48:11;;;;;;;60.92;21.20;;;;;;;-2.83;100.00;103218.81;5287823;28;20028;-77
2022/02/12 02:56:21;;;;;;;46.80;18.60;;;;;;;-2.98;100.00;103214.66;5286533;28;20020;-78
2022/02/12 02:58:53;;;;;;;68.00;21.42;;;;;;;-2.98;100.00;103207.66;5286886;28;20035;-78
2022/02/12 03:01:24;;;;;;;60.83;20.45;;;;;;;-2.98;100.00;103199.75;5286803;28;20111;-79
2022/02/12 03:03:55;;;;;;;56.15;19.58;;;;;;;-2.96;100.00;103199.72;5286819;28;20034;-79
2022/02/12 03:06:26;;;;;;;56.85;20.52;;;;;;;-2.97;100.00;103191.00;5286590;28;20160;-79
2022/02/12 03:08:58;;;;;;;52.53;20.08;;;;;;;-2.98;100.00;103197.13;5286685;28;20110;-79
2022/02/12 03:11:28;;;;;;;49.58;19.75;;;;;;;-3.02;100.00;103190.19;5286454;28;20019;-79
2022/02/12 03:13:59;;;;;;;50.78;19.95;;;;;;;-3.01;100.00;103186.69;5268601;28;20094;-79
2022/02/12 03:16:30;;;;;;;53.13;19.38;;;;;;;-2.99;100.00;103186.66;5272363;28;20428;-79
2022/02/12 03:19:02;;;;;;;50.70;19.20;;;;;;;-2.98;100.00;103184.00;5286643;28;20023;-78
2022/02/12 03:21:32;;;;;;;56.03;20.20;;;;;;;-2.98;100.00;103183.13;5286295;28;20169;-77
2022/02/12 03:24:03;;;;;;;52.67;21.00;;;;;;;-3.00;100.00;103180.53;5277039;28;20129;-77
2022/02/12 03:26:33;;;;;;;62.75;21.42;;;;;;;-3.04;100.00;103180.59;5286212;28;20064;-77
2022/02/12 03:29:04;;;;;;;53.60;19.58;;;;;;;-3.08;100.00;103177.16;5286378;28;20055;-77
2022/02/12 03:31:34;;;;;;;57.50;18.58;;;;;;;-3.11;100.00;103171.97;5285724;28;20058;-77
2022/02/12 03:34:05;;;;;;;51.25;18.60;;;;;;;-3.12;100.00;103168.44;5286383;28;20031;-77
2022/02/12 03:36:35;;;;;;;45.53;18.08;;;;;;;-3.12;100.00;103171.06;5286086;28;20027;-77
2022/02/12 03:39:06;;;;;;;48.65;18.10;;;;;;;-3.13;100.00;103169.34;5287841;28;20015;-77
2022/02/12 03:41:36;;;;;;;45.38;17.98;;;;;;;-3.16;100.00;103174.66;5286620;28;20106;-78
2022/02/12 03:44:07;;;;;;;43.88;18.33;;;;;;;-3.20;100.00;103167.69;5286335;28;20420;-78
2022/02/12 03:46:37;;;;;;;48.20;17.75;;;;;;;-3.19;100.00;103165.94;5286262;28;20541;-77
2022/02/12 03:49:07;;;;;;;47.65;18.33;;;;;;;-3.19;100.00;103164.19;5286285;28;20035;-76
2022/02/12 03:51:38;;;;;;;55.03;18.30;;;;;;;-3.18;100.00;103159.78;5268367;28;20483;-77
2022/02/12 03:54:08;;;;;;;50.65;18.10;;;;;;;-3.19;100.00;103169.44;5286335;28;20431;-77
2022/02/12 03:56:39;;;;;;;58.30;19.98;;;;;;;-3.19;100.00;103163.31;5251483;28;20054;-77
2022/02/12 03:59:09;;;;;;;45.92;17.10;;;;;;;-3.20;100.00;103162.44;5268444;28;20012;-77
2022/02/12 04:01:40;;;;;;;46.92;17.35;;;;;;;-3.12;100.00;103152.69;5287144;28;20435;-78
2022/02/12 04:04:10;;;;;;;40.90;15.65;;;;;;;-3.04;100.00;103157.84;5285428;28;20020;-79
2022/02/12 04:06:41;;;;;;;44.90;16.90;;;;;;;-3.04;100.00;103149.97;5285852;28;20027;-79
2022/02/12 04:09:11;;;;;;;42.30;16.33;;;;;;;-3.04;100.00;103155.22;5285625;28;20080;-76
2022/02/12 04:11:41;;;;;;;44.40;16.80;;;;;;;-3.05;100.00;103147.38;5286152;28;20095;-76
2022/02/12 04:14:12;;;;;;;52.55;17.73;;;;;;;-3.10;100.00;103146.56;5285162;28;20371;-76
2022/02/12 04:16:42;;;;;;;49.72;16.90;;;;;;;-3.17;100.00;103144.00;5271497;28;20059;-76
2022/02/12 04:19:13;;;;;;;40.97;16.83;;;;;;;-3.23;100.00;103140.59;5285583;28;20522;-76
2022/02/12 04:21:44;;;;;;;44.95;15.20;;;;;;;-3.27;100.00;103144.16;5283501;28;20330;-76
2022/02/12 04:24:14;;;;;;;40.60;15.38;;;;;;;-3.29;100.00;103140.69;5277738;28;20016;-77
2022/02/12 04:26:44;;;;;;;49.70;16.38;;;;;;;-3.30;100.00;103145.09;5285297;28;20066;-76
2022/02/12 04:29:15;;;;;;;44.45;15.90;;;;;;;-3.34;100.00;103135.50;5285317;28;20012;-76
2022/02/12 04:31:45;;;;;;;49.67;16.83;;;;;;;-3.35;100.00;103136.41;5285596;28;20027;-76
2022/02/12 04:34:16;;;;;;;52.30;17.52;;;;;;;-3.38;100.00;103139.94;5287720;28;20032;-76
2022/02/12 04:36:47;;;;;;;40.88;15.55;;;;;;;-3.40;100.00;103133.84;5285831;28;20023;-76
2022/02/12 04:39:18;;;;;;;44.33;15.30;;;;;;;-3.42;100.00;103130.34;5285719;28;20016;-77
2022/02/12 04:41:48;;;;;;;39.75;16.05;;;;;;;-3.43;100.00;103127.75;5285519;28;20022;-76
2022/02/12 04:44:19;;;;;;;39.95;15.70;;;;;;;-3.45;100.00;103127.78;5285013;28;20173;-77
2022/02/12 04:46:49;;;;;;;45.40;14.80;;;;;;;-3.44;100.00;103129.53;5285280;28;20115;-75
2022/02/12 04:49:22;;;;;;;50.60;16.38;;;;;;;-3.45;100.00;103119.91;5285075;28;20027;-76
2022/02/12 04:51:52;;;;;;;44.28;16.20;;;;;;;-3.46;100.00;103114.69;5285029;28;20555;-76
2022/02/12 04:54:23;;;;;;;36.03;14.43;;;;;;;-3.48;100.00;103114.69;5285552;28;20110;-75
2022/02/12 04:56:53;;;;;;;39.88;15.38;;;;;;;-3.45;100.00;103113.81;5284911;28;20055;-76
2022/02/12 04:59:24;;;;;;;44.97;15.25;;;;;;;-3.44;100.00;103116.41;5285286;28;20062;-76
2022/02/12 05:01:54;;;;;;;47.03;15.20;;;;;;;-3.40;100.00;103120.72;5284924;28;20030;-76
2022/02/12 05:04:25;;;;;;;43.03;15.60;;;;;;;-3.44;100.00;103110.28;5285181;28;20110;-75
2022/02/12 05:06:55;;;;;;;45.75;13.77;;;;;;;-3.48;100.00;103106.81;5285030;28;20051;-75
2022/02/12 05:09:26;;;;;;;44.20;14.55;;;;;;;-3.50;100.00;103106.00;5285078;28;20478;-75
2022/02/12 05:11:57;;;;;;;41.53;15.48;;;;;;;-3.51;100.00;103111.28;5284941;28;20027;-75
2022/02/12 05:14:31;;;;;;;37.28;14.00;;;;;;;-3.55;100.00;103097.31;5284924;28;20203;-75
2022/02/12 05:17:03;;;;;;;36.00;14.18;;;;;;;-3.58;100.00;103099.09;5272180;28;20106;-75
2022/02/12 05:19:33;;;;;;;52.25;14.20;;;;;;;-3.60;100.00;103100.88;5286303;28;20104;-75
2022/02/12 05:22:04;;;;;;;48.25;14.50;;;;;;;-3.57;100.00;103100.81;5280777;28;20408;-75
2022/02/12 05:24:34;;;;;;;40.22;13.48;;;;;;;-3.55;100.00;103101.69;5281255;28;20047;-76
2022/02/12 05:27:05;;;;;;;31.45;12.98;;;;;;;-3.51;100.00;103090.28;5287582;28;20050;-75
2022/02/12 05:29:35;;;;;;;30.25;12.73;;;;;;;-3.46;100.00;103086.69;5289426;28;20075;-75
2022/02/12 05:32:06;;;;;;;43.22;13.75;;;;;;;-3.44;100.00;103087.53;5288580;28;20028;-75
2022/02/12 05:34:37;;;;;;;41.58;13.82;;;;;;;-3.47;100.00;103087.56;5288711;28;20546;-75
2022/02/12 05:37:07;;;;;;;42.45;14.73;;;;;;;-3.51;100.00;103074.53;5270394;28;20494;-76
2022/02/12 05:39:38;;;;;;;45.75;14.07;;;;;;;-3.54;100.00;103074.56;5288562;28;20080;-76
2022/02/12 05:42:08;;;;;;;38.35;13.55;;;;;;;-3.57;100.00;103070.19;5288219;28;20055;-76
2022/02/12 05:44:38;;;;;;;45.95;12.80;;;;;;;-3.59;100.00;103072.00;5288179;28;20055;-76
2022/02/12 05:47:09;;;;;;;43.58;13.00;;;;;;;-3.60;100.00;103070.28;5288979;28;20531;-75
2022/02/12 05:49:40;;;;;;;53.85;13.55;;;;;;;-3.60;100.00;103069.41;5288511;28;20081;-75
2022/02/12 05:52:10;;;;;;;32.88;11.98;;;;;;;-3.60;100.00;103062.41;5270138;28;20296;-75
2022/02/12 05:54:41;;;;;;;46.17;14.65;;;;;;;-3.57;100.00;103062.34;5288052;28;20483;-75
2022/02/12 05:57:11;;;;;;;41.70;12.90;;;;;;;-3.56;100.00;103063.22;5288135;28;20023;-76
2022/02/12 05:59:42;;;;;;;39.53;14.38;;;;;;;-3.58;100.00;103049.25;5288048;28;20020;-75
2022/02/12 06:02:12;;;;;;;33.80;12.93;;;;;;;-3.62;100.00;103045.78;5288349;28;20146;-75
2022/02/12 06:04:43;;;;;;;41.30;13.75;;;;;;;-3.63;100.00;103045.81;5288330;28;20106;-75
2022/02/12 06:07:14;;;;;;;37.42;13.68;;;;;;;-3.66;100.00;103037.13;5288200;28;20047;-77
2022/02/12 06:09:44;;;;;;;27.83;12.07;;;;;;;-3.68;100.00;103023.13;5288023;28;20578;-77
2022/02/12 06:12:14;;;;;;;29.70;12.52;;;;;;;-3.65;100.00;103028.34;5287827;28;20106;-77
2022/02/12 06:14:45;;;;;;;34.70;12.75;;;;;;;-3.51;100.00;103022.03;5285582;28;20031;-77
2022/02/12 06:17:15;;;;;;;44.08;13.18;;;;;;;-3.45;100.00;103030.69;5264783;28;20024;-77
2022/02/12 06:19:46;;;;;;;35.78;12.68;;;;;;;-3.46;100.00;103036.84;5269514;28;20022;-77
2022/02/12 06:22:16;;;;;;;38.20;12.98;;;;;;;-3.51;100.00;103022.91;5281805;28;20056;-77
2022/02/12 06:24:47;;;;;;;39.90;13.00;;;;;;;-3.51;100.00;103024.66;5284582;28;20414;-77
2022/02/12 06:27:17;;;;;;;39.55;12.38;;;;;;;-3.51;100.00;103019.41;5269421;28;20023;-77
2022/02/12 06:29:48;;;;;;;30.02;11.70;;;;;;;-3.56;100.00;103011.63;5288874;28;20019;-81
2022/02/12 06:32:18;;;;;;;29.67;12.02;;;;;;;-3.62;100.00;103009.06;5256496;28;20040;-81
2022/02/12 06:34:51;;;;;;;31.02;12.85;;;;;;;-3.66;100.00;103004.78;5273146;28;20501;-81
2022/02/12 06:37:21;;;;;;;35.08;12.35;;;;;;;-3.68;100.00;103011.78;5291365;28;20027;-81
2022/02/12 06:39:52;;;;;;;41.75;11.60;;;;;;;-3.73;100.00;103005.72;5288313;28;20463;-78
2022/02/12 06:42:23;;;;;;;30.40;11.70;;;;;;;-3.76;100.00;103003.16;5269536;28;20023;-84
2022/02/12 06:44:53;;;;;;;29.85;11.63;;;;;;;-3.73;100.00;102992.63;5270029;28;20030;-81
2022/02/12 06:47:24;;;;;;;34.00;11.40;;;;;;;-3.65;100.00;102996.88;5271775;28;20023;-79
2022/02/12 06:49:54;;;;;;;42.58;12.68;;;;;;;-3.65;100.00;102996.00;5290321;28;20614;-79
2022/02/12 06:52:24;;;;;;;37.45;11.60;;;;;;;-3.67;100.00;102998.63;5289350;28;20103;-76
2022/02/12 06:54:56;;;;;;;37.90;12.00;;;;;;;-3.66;100.00;102999.53;5287327;28;20031;-77
2022/02/12 06:57:27;;;;;;;32.53;10.82;;;;;;;-3.61;100.00;103002.03;5286700;28;20031;-77
2022/02/12 06:59:57;;;;;;;40.80;11.85;;;;;;;-3.61;100.00;102991.56;5281765;28;20729;-77
2022/02/12 07:02:27;;;;;;;31.58;11.15;;;;;;;-3.60;100.00;102988.94;5288748;28;20020;-77
2022/02/12 07:05:00;;;;;;;28.33;10.95;;;;;;;-3.51;100.00;102995.81;5286610;28;20429;-77
2022/02/12 07:07:30;;;;;;;40.45;11.52;;;;;;;-3.49;100.00;102992.25;5289043;28;20368;-78
2022/02/12 07:10:01;;;;;;;25.42;10.98;;;;;;;-3.46;100.00;102992.22;5289434;28;20024;-78
2022/02/12 07:12:31;;;;;;;36.88;10.63;;;;;;;-3.39;100.00;102996.47;5268480;28;20059;-79
2022/02/12 07:15:02;;;;;;;30.23;9.73;;;;;;;-3.32;100.00;102994.59;5281846;28;20546;-76
2022/02/12 07:17:37;;;;;;;26.33;10.45;;;;;;;-3.29;100.00;102986.69;5276644;28;20555;-76
2022/02/12 07:20:09;;;;;;;36.22;9.00;;;;;;;-3.25;100.00;102982.25;5285927;28;20544;-76
2022/02/12 07:22:41;;;;;;;28.73;9.23;;;;;;;-3.18;100.00;102994.38;5276789;28;20111;-78
2022/02/12 07:25:13;;;;;;;42.17;10.80;;;;;;;-3.16;100.00;102993.47;5247096;28;20581;-76
2022/02/12 07:27:43;;;;;;;36.17;9.65;;;;;;;-3.14;100.00;102994.31;5280918;28;20050;-76
2022/02/12 07:30:15;;;;;;;24.73;8.82;;;;;;;-3.11;100.00;102998.66;5286519;28;20441;-77
2022/02/12 07:32:46;;;;;;;29.80;9.48;;;;;;;-3.13;100.00;103001.28;5286635;28;20038;-77
2022/02/12 07:35:18;;;;;;;30.52;9.77;;;;;;;-3.13;100.00;102996.03;5286642;28;20023;-76
2022/02/12 07:37:49;;;;;;;26.40;9.35;;;;;;;-3.09;100.00;102996.84;5267693;28;20107;-76
2022/02/12 07:40:19;;;;;;;32.95;10.15;;;;;;;-3.06;100.00;102996.81;5286759;28;20030;-76
2022/02/12 07:42:50;;;;;;;25.98;8.95;;;;;;;-3.00;100.00;102994.06;5286423;28;20019;-76
2022/02/12 07:45:21;;;;;;;29.35;9.60;;;;;;;-2.92;100.00;102988.66;5286512;28;20374;-76
2022/02/12 07:47:54;;;;;;;26.35;9.15;;;;;;;-2.85;100.00;102990.31;5285296;28;20380;-76
2022/02/12 07:50:25;;;;;;;29.80;9.48;;;;;;;-2.78;100.00;102984.03;5285061;28;20035;-76
2022/02/12 07:52:55;;;;;;;25.90;9.88;;;;;;;-2.73;100.00;102979.56;5285176;28;20070;-76
2022/02/12 07:55:26;;;;;;;29.98;9.00;;;;;;;-2.67;100.00;102968.06;5285075;28;20487;-76
2022/02/12 07:57:57;;;;;;;33.42;9.88;;;;;;;-2.62;100.00;102974.97;5284968;28;20059;-76
2022/02/12 08:00:28;;;;;;;33.65;10.40;;;;;;;-2.56;100.00;102960.88;5284724;28;20051;-76
2022/02/12 08:02:58;;;;;;;30.85;9.02;;;;;;;-2.48;100.00;102958.06;5285118;28;20051;-76
2022/02/12 08:05:29;;;;;;;35.25;10.50;;;;;;;-2.40;100.00;102964.03;5285002;28;20023;-76
2022/02/12 08:08:18;;;;;;;39.60;10.02;;;;;;;-2.28;100.00;102968.19;5285459;28;20465;-76
2022/02/12 08:13:37;;;;;;;32.85;9.48;;;;;;;-2.00;100.00;102966.69;5285209;28;20028;-76
2022/02/12 08:16:08;;;;;;;23.13;10.27;;;;;;;-1.91;100.00;102962.97;5293737;27;20023;-76
2022/02/12 08:18:38;;;;;;;23.23;8.65;;;;;;;-1.85;100.00;102963.72;5276149;28;20023;-80
2022/02/12 08:21:09;;;;;;;25.92;9.02;;;;;;;-1.78;100.00;102964.44;5255392;28;20483;-80
2022/02/12 08:23:39;;;;;;;30.65;8.15;;;;;;;-1.60;100.00;102955.25;5271300;28;20076;-79
2022/02/12 08:26:10;;;;;;;26.92;7.55;;;;;;;-1.46;100.00;102960.16;5289546;28;20055;-80
2022/02/12 08:28:41;;;;;;;22.20;7.35;;;;;;;-1.44;100.00;102956.63;5290049;28;20023;-81
2022/02/12 08:31:11;;;;;;;20.23;7.00;;;;;;;-1.31;100.00;102962.44;5290204;28;20020;-77
2022/02/12 08:33:42;;;;;;;21.27;7.70;;;;;;;-1.06;100.00;102958.25;5278214;28;20023;-78
2022/02/12 08:36:12;;;;;;;26.25;7.40;;;;;;;-0.48;100.00;102955.81;5269439;28;20030;-80
2022/02/12 08:38:43;;;;;;;34.08;8.15;;;;;;;-0.04;100.00;102953.66;5250841;28;20054;-78
2022/02/12 08:41:13;;;;;;;20.83;7.35;;;;;;;0.55;100.00;102945.59;5273729;28;20043;-79
2022/02/12 08:43:44;;;;;;;22.88;7.57;;;;;;;1.22;100.00;102947.75;5273498;28;20081;-79
2022/02/12 08:46:14;;;;;;;22.10;6.72;;;;;;;1.84;100.00;102941.03;5276128;28;20042;-80
2022/02/12 08:48:45;;;;;;;24.27;6.57;;;;;;;2.41;100.00;102942.31;5246269;28;20044;-81
2022/02/12 08:51:15;;;;;;;17.75;6.32;;;;;;;2.71;100.00;102943.72;5247082;28;20028;-81
2022/02/12 08:53:45;;;;;;;14.32;5.90;;;;;;;2.98;100.00;102938.16;5277934;28;20085;-82
2022/02/12 08:56:16;;;;;;;21.63;6.22;;;;;;;3.24;100.00;102929.91;5287431;28;20122;-80
2022/02/12 08:58:46;;;;;;;30.10;6.78;;;;;;;3.30;100.00;102932.28;5285713;28;20062;-82
2022/02/12 09:01:17;;;;;;;35.80;8.43;;;;;;;3.37;100.00;102932.91;5274010;28;20028;-81
2022/02/12 09:03:47;;;;;;;22.70;5.13;;;;;;;3.56;100.00;102932.91;5290551;28;20095;-80
2022/02/12 09:06:18;;;;;;;17.45;5.32;;;;;;;3.95;100.00;102932.84;5272607;28;20096;-81
2022/02/12 09:08:51;;;;;;;20.05;5.63;;;;;;;4.08;100.00;102933.16;5272743;28;20107;-81
2022/02/12 09:11:22;;;;;;;15.82;5.25;;;;;;;4.44;100.00;102930.50;5277322;28;20101;-81
2022/02/12 09:13:54;;;;;;;14.32;5.68;;;;;;;4.72;100.00;102927.34;5290360;28;20027;-81
2022/02/12 09:16:26;;;;;;;18.77;5.63;;;;;;;4.73;100.00;102922.88;5280030;28;20035;-81
2022/02/12 09:18:56;;;;;;;17.98;5.10;;;;;;;4.94;100.00;102913.78;5293615;28;20024;-79
2022/02/12 09:21:26;;;;;;;16.50;4.25;;;;;;;5.28;100.00;102912.88;5292916;28;20501;-82
2022/02/12 09:23:57;;;;;;;15.43;4.47;;;;;;;5.48;100.00;102914.47;5264516;28;20424;-79
2022/02/12 09:26:30;;;;;;;19.65;5.15;;;;;;;5.15;100.00;102906.47;5292035;28;20382;-80
2022/02/12 09:29:03;;;;;;;26.25;5.25;;;;;;;5.29;100.00;102898.63;5292031;28;20131;-79
2022/02/12 09:31:33;;;;;;;18.50;4.40;;;;;;;5.31;100.00;102898.53;5292374;28;20024;-83
2022/02/12 09:34:05;;;;;;;15.20;4.80;;;;;;;5.78;100.00;102893.31;5290230;28;20034;-81
2022/02/12 09:36:38;;;;;;;15.68;3.92;;;;;;;6.01;100.00;102899.16;5272791;28;20111;-81
2022/02/12 09:39:08;;;;;;;15.82;3.45;;;;;;;5.69;100.00;102883.16;5290125;28;20027;-81
2022/02/12 09:41:39;;;;;;;12.60;3.97;;;;;;;5.89;100.00;102882.91;5273583;28;20026;-82
2022/02/12 09:44:09;;;;;;;13.52;4.70;;;;;;;6.19;100.00;102880.31;5273584;28;20031;-81
2022/02/12 09:46:51;;;;;;;16.65;5.00;;;;;;;5.88;100.00;102885.66;5256852;28;20028;-82
2022/02/12 09:49:21;;;;;;;16.23;4.43;;;;;;;6.13;100.00;102875.34;5255641;28;20035;-80
2022/02/12 09:51:52;;;;;;;19.55;4.22;;;;;;;5.86;100.00;102871.53;5292723;28;20027;-80
2022/02/12 09:54:25;;;;;;;18.95;4.47;;;;;;;6.06;100.00;102868.63;5293277;28;20028;-81
2022/02/12 09:56:57;;;;;;;17.27;4.28;;;;;;;5.97;100.00;102866.50;5276033;28;20027;-81
2022/02/12 09:59:27;;;;;;;20.38;4.28;;;;;;;5.89;100.00;102852.75;5276811;28;20012;-81
2022/02/12 10:01:57;;;;;;;12.82;3.50;;;;;;;5.80;100.00;102856.78;5257488;28;20020;-81
2022/02/12 10:04:31;;;;;;;14.18;4.00;;;;;;;5.51;100.00;102846.88;5249182;28;20024;-81
2022/02/12 10:07:01;;;;;;;17.02;4.28;;;;;;;5.90;100.00;102838.47;5285764;28;20036;-78
2022/02/12 10:09:33;;;;;;;14.88;4.60;;;;;;;5.92;100.00;102832.16;5268895;28;20015;-77
2022/02/12 10:12:04;;;;;;;12.57;3.65;;;;;;;6.32;100.00;102832.47;5286611;28;20032;-77
2022/02/12 10:14:35;;;;;;;16.52;4.30;;;;;;;6.24;100.00;102837.41;5286862;28;20068;-77
2022/02/12 10:17:06;;;;;;;16.27;4.15;;;;;;;6.16;100.00;102835.19;5274594;28;20069;-77
2022/02/12 10:19:38;;;;;;;17.90;4.97;;;;;;;6.26;100.00;102821.31;5286715;28;20027;-77
2022/02/12 10:22:28;;;;;;;14.57;3.42;;;;;;;6.10;100.00;102824.88;5282035;28;20028;-78
2022/02/12 10:25:04;;;;;;;24.88;4.22;;;;;;;5.94;100.00;102819.59;5285685;28;20027;-78
2022/02/12 10:27:36;;;;;;;11.18;3.67;;;;;;;5.83;100.00;102816.66;5287209;28;20406;-78
2022/02/12 10:30:08;;;;;;;21.00;4.15;;;;;;;5.70;100.00;102828.94;5286763;28;20024;-77
2022/02/12 10:32:38;;;;;;;16.70;3.78;;;;;;;5.91;100.00;102818.88;5286845;28;20035;-77
2022/02/12 10:35:10;;;;;;;10.73;3.50;;;;;;;6.23;100.00;102807.25;5286851;28;20129;-77
2022/02/12 10:37:42;;;;;;;11.32;3.53;;;;;;;6.10;100.00;102813.38;5287030;28;20023;-77
2022/02/12 10:40:14;;;;;;;9.93;3.40;;;;;;;5.79;100.00;102800.94;5287078;28;20107;-77
2022/02/12 10:42:45;;;;;;;12.75;2.80;;;;;;;5.73;100.00;102799.47;5268452;28;20066;-77
2022/02/12 10:45:18;;;;;;;16.95;3.70;;;;;;;5.74;100.00;102797.66;5287390;28;20046;-77
2022/02/12 10:47:49;;;;;;;11.32;3.78;;;;;;;5.75;100.00;102796.72;5287104;28;20023;-77
2022/02/12 10:50:23;;;;;;;20.85;3.53;;;;;;;5.96;100.00;102793.69;5286712;28;20023;-77
2022/02/12 10:52:56;;;;;;;18.10;3.80;;;;;;;6.21;100.00;102792.28;5268747;28;20024;-77
2022/02/12 10:55:46;;;;;;;16.20;3.35;;;;;;;6.49;100.00;102781.69;5286675;28;20092;-78
2022/02/12 10:58:17;;;;;;;19.05;3.55;;;;;;;6.68;100.00;102781.44;5287349;28;20035;-77
2022/02/12 11:00:47;;;;;;;16.95;4.55;;;;;;;6.71;100.00;102781.22;5268470;28;20032;-81
2022/02/12 11:03:20;;;;;;;15.63;3.53;;;;;;;6.92;100.00;102772.84;5287249;28;20434;-77
2022/02/12 11:05:52;;;;;;;19.73;3.97;;;;;;;6.84;100.00;102773.34;5286172;28;20028;-77
2022/02/12 11:08:24;;;;;;;14.40;3.97;;;;;;;6.44;100.00;102766.94;5286342;28;20564;-77
2022/02/12 11:10:54;;;;;;;10.65;2.92;;;;;;;6.71;100.00;102767.88;5286077;28;20024;-77
2022/02/12 11:13:25;;;;;;;14.27;3.15;;;;;;;6.73;100.00;102771.34;5286679;28;20068;-77
2022/02/12 11:15:56;;;;;;;14.15;3.35;;;;;;;6.84;100.00;102760.00;5274785;28;20031;-77
2022/02/12 11:18:28;;;;;;;14.18;3.13;;;;;;;7.03;100.00;102767.72;5284060;28;20084;-77
2022/02/12 11:20:58;;;;;;;10.50;3.50;;;;;;;6.70;100.00;102750.19;5287031;28;20023;-77
2022/02/12 11:23:29;;;;;;;7.70;2.58;;;;;;;6.78;100.00;102752.38;5278879;28;20012;-77
2022/02/12 11:26:45;;;;;;;15.48;3.20;;;;;;;6.91;100.00;102747.97;5288209;28;20360;-77
2022/02/12 11:29:36;;;;;;;13.35;2.95;;;;;;;6.92;100.00;102740.84;5285302;28;20035;-77
2022/02/12 11:32:26;;;;;;;12.00;2.65;;;;;;;6.89;100.00;102736.56;5288228;28;20027;-77
2022/02/12 11:35:12;;;;;;;11.95;3.90;;;;;;;7.22;100.00;102727.34;5288583;28;20035;-80